sensor_id;sensor_type;location;lat;lon;timestamp;P1;durP1;ratioP1;P2;durP2;ratioP2
3333;SDS011;1679;50.392;8.008;2023-02-21T00:02:18;43.57;;;26.97;;
3333;SDS011;1679;50.392;8.008;2023-02-21T00:05:03;42.20;;;25.40;;
3333;SDS011;1679;50.392;8.008;2023-02-21T00:07:47;43.20;;;23.83;;
3333;SDS011;1679;50.392;8.008;2023-02-21T00:10:31;37.67;;;23.83;;
3333;SDS011;1679;50.392;8.008;2023-02-21T00:13:15;40.87;;;23.73;;
3333;SDS011;1679;50.392;8.008;2023-02-21T00:15:59;37.20;;;23.00;;
3333;SDS011;1679;50.392;8.008;2023-02-21T00:18:43;36.90;;;21.87;;
3333;SDS011;1679;50.392;8.008;2023-02-21T00:21:27;40.20;;;23.40;;
3333;SDS011;1679;50.392;8.008;2023-02-21T00:24:13;42.37;;;24.10;;
3333;SDS011;1679;50.392;8.008;2023-02-21T00:26:58;43.23;;;23.67;;
3333;SDS011;1679;50.392;8.008;2023-02-21T00:29:42;44.83;;;25.53;;
3333;SDS011;1679;50.392;8.008;2023-02-21T00:32:26;40.07;;;24.63;;
3333;SDS011;1679;50.392;8.008;2023-02-21T00:35:11;40.30;;;24.10;;
3333;SDS011;1679;50.392;8.008;2023-02-21T00:37:56;41.83;;;23.87;;
3333;SDS011;1679;50.392;8.008;2023-02-21T00:40:40;46.30;;;24.33;;
3333;SDS011;1679;50.392;8.008;2023-02-21T00:43:29;42.00;;;24.97;;
3333;SDS011;1679;50.392;8.008;2023-02-21T00:46:15;42.87;;;23.80;;
3333;SDS011;1679;50.392;8.008;2023-02-21T00:49:00;45.00;;;23.90;;
3333;SDS011;1679;50.392;8.008;2023-02-21T00:51:44;43.83;;;23.83;;
3333;SDS011;1679;50.392;8.008;2023-02-21T00:54:28;44.80;;;25.97;;
3333;SDS011;1679;50.392;8.008;2023-02-21T00:57:12;49.17;;;25.13;;
3333;SDS011;1679;50.392;8.008;2023-02-21T00:59:57;45.90;;;24.00;;
3333;SDS011;1679;50.392;8.008;2023-02-21T01:02:41;43.20;;;24.50;;
3333;SDS011;1679;50.392;8.008;2023-02-21T01:05:26;39.27;;;23.37;;
3333;SDS011;1679;50.392;8.008;2023-02-21T01:08:10;45.07;;;24.33;;
3333;SDS011;1679;50.392;8.008;2023-02-21T01:10:54;41.83;;;23.27;;
3333;SDS011;1679;50.392;8.008;2023-02-21T01:13:38;44.83;;;22.70;;
3333;SDS011;1679;50.392;8.008;2023-02-21T01:16:22;42.67;;;22.73;;
3333;SDS011;1679;50.392;8.008;2023-02-21T01:19:06;48.73;;;24.63;;
3333;SDS011;1679;50.392;8.008;2023-02-21T01:21:50;41.13;;;23.97;;
3333;SDS011;1679;50.392;8.008;2023-02-21T01:24:34;39.83;;;22.93;;
3333;SDS011;1679;50.392;8.008;2023-02-21T01:27:19;42.13;;;24.73;;
3333;SDS011;1679;50.392;8.008;2023-02-21T01:30:03;45.73;;;24.13;;
3333;SDS011;1679;50.392;8.008;2023-02-21T01:32:47;44.77;;;23.80;;
3333;SDS011;1679;50.392;8.008;2023-02-21T01:35:31;48.33;;;24.40;;
3333;SDS011;1679;50.392;8.008;2023-02-21T01:38:15;42.57;;;23.40;;
3333;SDS011;1679;50.392;8.008;2023-02-21T01:40:59;46.70;;;23.00;;
3333;SDS011;1679;50.392;8.008;2023-02-21T01:43:57;43.80;;;23.27;;
3333;SDS011;1679;50.392;8.008;2023-02-21T01:46:49;48.57;;;25.37;;
3333;SDS011;1679;50.392;8.008;2023-02-21T01:49:35;44.70;;;24.07;;
3333;SDS011;1679;50.392;8.008;2023-02-21T01:52:22;44.67;;;24.70;;
3333;SDS011;1679;50.392;8.008;2023-02-21T01:55:07;45.03;;;24.37;;
3333;SDS011;1679;50.392;8.008;2023-02-21T01:57:52;38.47;;;23.57;;
3333;SDS011;1679;50.392;8.008;2023-02-21T02:00:37;40.63;;;23.43;;
3333;SDS011;1679;50.392;8.008;2023-02-21T02:03:22;38.73;;;23.53;;
3333;SDS011;1679;50.392;8.008;2023-02-21T02:06:07;39.00;;;22.40;;
3333;SDS011;1679;50.392;8.008;2023-02-21T02:08:57;38.20;;;22.47;;
3333;SDS011;1679;50.392;8.008;2023-02-21T02:14:53;43.17;;;22.93;;
3333;SDS011;1679;50.392;8.008;2023-02-21T02:17:41;43.80;;;23.80;;
3333;SDS011;1679;50.392;8.008;2023-02-21T02:29:25;42.57;;;24.00;;
3333;SDS011;1679;50.392;8.008;2023-02-21T02:32:23;43.07;;;24.70;;
3333;SDS011;1679;50.392;8.008;2023-02-21T02:35:12;43.00;;;24.53;;
3333;SDS011;1679;50.392;8.008;2023-02-21T02:37:55;41.10;;;22.80;;
3333;SDS011;1679;50.392;8.008;2023-02-21T02:40:31;47.37;;;25.27;;
3333;SDS011;1679;50.392;8.008;2023-02-21T02:49:00;44.27;;;23.60;;
3333;SDS011;1679;50.392;8.008;2023-02-21T02:51:34;39.97;;;23.37;;
3333;SDS011;1679;50.392;8.008;2023-02-21T02:54:00;47.73;;;25.00;;
3333;SDS011;1679;50.392;8.008;2023-02-21T02:56:26;42.47;;;22.90;;
3333;SDS011;1679;50.392;8.008;2023-02-21T02:58:55;40.20;;;23.30;;
3333;SDS011;1679;50.392;8.008;2023-02-21T03:12:43;32.33;;;21.50;;
3333;SDS011;1679;50.392;8.008;2023-02-21T03:20:49;33.17;;;19.30;;
3333;SDS011;1679;50.392;8.008;2023-02-21T03:23:20;35.87;;;18.07;;
3333;SDS011;1679;50.392;8.008;2023-02-21T03:25:49;33.43;;;19.80;;
3333;SDS011;1679;50.392;8.008;2023-02-21T03:28:16;34.57;;;19.70;;
3333;SDS011;1679;50.392;8.008;2023-02-21T03:30:43;32.57;;;19.07;;
3333;SDS011;1679;50.392;8.008;2023-02-21T03:33:12;33.97;;;19.70;;
3333;SDS011;1679;50.392;8.008;2023-02-21T03:35:38;34.23;;;18.47;;
3333;SDS011;1679;50.392;8.008;2023-02-21T03:38:03;36.77;;;19.30;;
3333;SDS011;1679;50.392;8.008;2023-02-21T03:40:31;31.93;;;18.07;;
3333;SDS011;1679;50.392;8.008;2023-02-21T03:42:58;31.30;;;19.00;;
3333;SDS011;1679;50.392;8.008;2023-02-21T03:45:25;36.43;;;19.10;;
3333;SDS011;1679;50.392;8.008;2023-02-21T03:47:51;35.93;;;19.13;;
3333;SDS011;1679;50.392;8.008;2023-02-21T03:50:16;32.20;;;18.40;;
3333;SDS011;1679;50.392;8.008;2023-02-21T03:52:42;28.67;;;18.63;;
3333;SDS011;1679;50.392;8.008;2023-02-21T03:55:08;29.23;;;18.83;;
3333;SDS011;1679;50.392;8.008;2023-02-21T03:57:35;43.10;;;18.67;;
3333;SDS011;1679;50.392;8.008;2023-02-21T04:00:00;31.90;;;18.00;;
3333;SDS011;1679;50.392;8.008;2023-02-21T04:02:26;31.57;;;18.90;;
3333;SDS011;1679;50.392;8.008;2023-02-21T04:04:53;36.97;;;18.60;;
3333;SDS011;1679;50.392;8.008;2023-02-21T04:07:19;28.90;;;17.93;;
3333;SDS011;1679;50.392;8.008;2023-02-21T04:09:45;34.50;;;17.90;;
3333;SDS011;1679;50.392;8.008;2023-02-21T04:12:11;33.27;;;18.20;;
3333;SDS011;1679;50.392;8.008;2023-02-21T04:14:38;30.43;;;18.23;;
3333;SDS011;1679;50.392;8.008;2023-02-21T04:17:03;32.00;;;18.77;;
3333;SDS011;1679;50.392;8.008;2023-02-21T04:19:29;33.83;;;18.33;;
3333;SDS011;1679;50.392;8.008;2023-02-21T04:21:55;32.27;;;18.77;;
3333;SDS011;1679;50.392;8.008;2023-02-21T04:24:21;29.33;;;17.50;;
3333;SDS011;1679;50.392;8.008;2023-02-21T04:26:52;29.77;;;18.13;;
3333;SDS011;1679;50.392;8.008;2023-02-21T04:29:18;32.20;;;18.77;;
3333;SDS011;1679;50.392;8.008;2023-02-21T04:31:43;31.43;;;18.73;;
3333;SDS011;1679;50.392;8.008;2023-02-21T04:34:09;34.10;;;17.77;;
3333;SDS011;1679;50.392;8.008;2023-02-21T04:36:35;32.00;;;17.87;;
3333;SDS011;1679;50.392;8.008;2023-02-21T04:39:02;30.93;;;17.67;;
3333;SDS011;1679;50.392;8.008;2023-02-21T04:41:29;31.70;;;17.70;;
3333;SDS011;1679;50.392;8.008;2023-02-21T04:43:54;34.83;;;17.20;;
3333;SDS011;1679;50.392;8.008;2023-02-21T04:46:20;37.90;;;18.20;;
3333;SDS011;1679;50.392;8.008;2023-02-21T04:48:46;24.90;;;16.37;;
3333;SDS011;1679;50.392;8.008;2023-02-21T04:51:13;36.40;;;16.60;;
3333;SDS011;1679;50.392;8.008;2023-02-21T04:53:40;29.50;;;16.47;;
3333;SDS011;1679;50.392;8.008;2023-02-21T04:56:06;28.77;;;17.40;;
3333;SDS011;1679;50.392;8.008;2023-02-21T04:58:31;28.07;;;16.50;;
3333;SDS011;1679;50.392;8.008;2023-02-21T05:00:57;24.87;;;16.17;;
3333;SDS011;1679;50.392;8.008;2023-02-21T05:03:25;23.90;;;16.90;;
3333;SDS011;1679;50.392;8.008;2023-02-21T05:05:51;30.23;;;19.03;;
3333;SDS011;1679;50.392;8.008;2023-02-21T05:08:17;31.00;;;19.70;;
3333;SDS011;1679;50.392;8.008;2023-02-21T05:10:42;42.40;;;26.33;;
3333;SDS011;1679;50.392;8.008;2023-02-21T05:13:08;42.40;;;25.80;;
3333;SDS011;1679;50.392;8.008;2023-02-21T05:15:33;38.27;;;23.20;;
3333;SDS011;1679;50.392;8.008;2023-02-21T05:17:59;38.70;;;21.50;;
3333;SDS011;1679;50.392;8.008;2023-02-21T05:20:25;34.97;;;19.90;;
3333;SDS011;1679;50.392;8.008;2023-02-21T05:22:50;34.10;;;19.70;;
3333;SDS011;1679;50.392;8.008;2023-02-21T05:25:20;29.73;;;17.63;;
3333;SDS011;1679;50.392;8.008;2023-02-21T05:27:47;32.10;;;19.97;;
3333;SDS011;1679;50.392;8.008;2023-02-21T05:30:16;34.00;;;20.87;;
3333;SDS011;1679;50.392;8.008;2023-02-21T05:32:46;36.60;;;19.03;;
3333;SDS011;1679;50.392;8.008;2023-02-21T05:35:12;28.10;;;18.43;;
3333;SDS011;1679;50.392;8.008;2023-02-21T05:37:39;34.20;;;20.03;;
3333;SDS011;1679;50.392;8.008;2023-02-21T05:40:08;32.60;;;20.30;;
3333;SDS011;1679;50.392;8.008;2023-02-21T05:42:36;30.70;;;20.00;;
3333;SDS011;1679;50.392;8.008;2023-02-21T05:45:02;30.70;;;18.93;;
3333;SDS011;1679;50.392;8.008;2023-02-21T05:47:32;29.03;;;17.70;;
3333;SDS011;1679;50.392;8.008;2023-02-21T05:49:59;29.33;;;20.50;;
3333;SDS011;1679;50.392;8.008;2023-02-21T05:52:25;32.90;;;19.93;;
3333;SDS011;1679;50.392;8.008;2023-02-21T05:54:51;33.00;;;18.90;;
3333;SDS011;1679;50.392;8.008;2023-02-21T05:57:17;30.23;;;17.80;;
3333;SDS011;1679;50.392;8.008;2023-02-21T05:59:44;28.67;;;17.43;;
3333;SDS011;1679;50.392;8.008;2023-02-21T06:02:12;28.63;;;17.23;;
3333;SDS011;1679;50.392;8.008;2023-02-21T06:04:38;32.37;;;16.93;;
3333;SDS011;1679;50.392;8.008;2023-02-21T06:07:05;29.57;;;18.00;;
3333;SDS011;1679;50.392;8.008;2023-02-21T06:09:30;26.80;;;16.27;;
3333;SDS011;1679;50.392;8.008;2023-02-21T06:11:58;28.57;;;16.87;;
3333;SDS011;1679;50.392;8.008;2023-02-21T06:14:24;33.80;;;18.53;;
3333;SDS011;1679;50.392;8.008;2023-02-21T06:16:50;26.67;;;16.53;;
3333;SDS011;1679;50.392;8.008;2023-02-21T06:19:16;26.00;;;17.40;;
3333;SDS011;1679;50.392;8.008;2023-02-21T06:21:42;22.43;;;15.10;;
3333;SDS011;1679;50.392;8.008;2023-02-21T06:24:09;26.33;;;15.90;;
3333;SDS011;1679;50.392;8.008;2023-02-21T06:26:35;24.93;;;15.77;;
3333;SDS011;1679;50.392;8.008;2023-02-21T06:29:01;32.03;;;17.50;;
3333;SDS011;1679;50.392;8.008;2023-02-21T06:31:28;27.90;;;16.20;;
3333;SDS011;1679;50.392;8.008;2023-02-21T06:33:53;27.93;;;17.33;;
3333;SDS011;1679;50.392;8.008;2023-02-21T06:36:24;25.30;;;15.67;;
3333;SDS011;1679;50.392;8.008;2023-02-21T06:38:52;24.60;;;15.00;;
3333;SDS011;1679;50.392;8.008;2023-02-21T06:41:21;28.33;;;16.07;;
3333;SDS011;1679;50.392;8.008;2023-02-21T06:43:49;27.57;;;16.43;;
3333;SDS011;1679;50.392;8.008;2023-02-21T06:46:16;28.40;;;16.40;;
3333;SDS011;1679;50.392;8.008;2023-02-21T06:48:43;23.37;;;15.23;;
3333;SDS011;1679;50.392;8.008;2023-02-21T06:51:09;27.67;;;15.63;;
3333;SDS011;1679;50.392;8.008;2023-02-21T06:53:35;26.90;;;17.40;;
3333;SDS011;1679;50.392;8.008;2023-02-21T06:56:07;29.87;;;17.20;;
3333;SDS011;1679;50.392;8.008;2023-02-21T06:58:33;35.37;;;17.50;;
3333;SDS011;1679;50.392;8.008;2023-02-21T07:00:59;25.80;;;17.67;;
3333;SDS011;1679;50.392;8.008;2023-02-21T07:03:25;29.23;;;17.57;;
3333;SDS011;1679;50.392;8.008;2023-02-21T07:05:50;33.20;;;18.77;;
3333;SDS011;1679;50.392;8.008;2023-02-21T07:08:17;31.33;;;19.27;;
3333;SDS011;1679;50.392;8.008;2023-02-21T07:10:44;30.87;;;18.00;;
3333;SDS011;1679;50.392;8.008;2023-02-21T07:13:11;32.57;;;17.70;;
3333;SDS011;1679;50.392;8.008;2023-02-21T07:15:37;28.90;;;16.80;;
3333;SDS011;1679;50.392;8.008;2023-02-21T07:18:02;29.50;;;17.60;;
3333;SDS011;1679;50.392;8.008;2023-02-21T07:20:28;30.20;;;16.90;;
3333;SDS011;1679;50.392;8.008;2023-02-21T07:22:54;29.53;;;18.13;;
3333;SDS011;1679;50.392;8.008;2023-02-21T07:25:20;32.03;;;17.60;;
3333;SDS011;1679;50.392;8.008;2023-02-21T07:27:47;28.67;;;18.00;;
3333;SDS011;1679;50.392;8.008;2023-02-21T07:30:13;29.37;;;19.93;;
3333;SDS011;1679;50.392;8.008;2023-02-21T07:32:40;32.03;;;19.57;;
3333;SDS011;1679;50.392;8.008;2023-02-21T07:35:06;38.10;;;21.30;;
3333;SDS011;1679;50.392;8.008;2023-02-21T07:37:32;32.30;;;19.13;;
3333;SDS011;1679;50.392;8.008;2023-02-21T07:39:57;31.37;;;19.73;;
3333;SDS011;1679;50.392;8.008;2023-02-21T07:42:23;32.00;;;21.13;;
3333;SDS011;1679;50.392;8.008;2023-02-21T07:44:53;30.77;;;19.40;;
3333;SDS011;1679;50.392;8.008;2023-02-21T07:47:22;27.00;;;16.83;;
3333;SDS011;1679;50.392;8.008;2023-02-21T07:49:51;35.30;;;19.17;;
3333;SDS011;1679;50.392;8.008;2023-02-21T07:52:18;29.10;;;19.30;;
3333;SDS011;1679;50.392;8.008;2023-02-21T07:54:45;34.13;;;19.97;;
3333;SDS011;1679;50.392;8.008;2023-02-21T07:57:14;28.13;;;18.87;;
3333;SDS011;1679;50.392;8.008;2023-02-21T07:59:41;33.93;;;17.70;;
3333;SDS011;1679;50.392;8.008;2023-02-21T08:02:08;28.07;;;16.97;;
3333;SDS011;1679;50.392;8.008;2023-02-21T08:04:34;22.30;;;15.00;;
3333;SDS011;1679;50.392;8.008;2023-02-21T08:07:00;23.50;;;15.80;;
3333;SDS011;1679;50.392;8.008;2023-02-21T08:09:28;21.77;;;15.93;;
3333;SDS011;1679;50.392;8.008;2023-02-21T08:11:54;21.93;;;15.30;;
3333;SDS011;1679;50.392;8.008;2023-02-21T08:14:20;23.87;;;15.13;;
3333;SDS011;1679;50.392;8.008;2023-02-21T08:16:46;26.20;;;14.40;;
3333;SDS011;1679;50.392;8.008;2023-02-21T08:19:11;24.77;;;15.60;;
3333;SDS011;1679;50.392;8.008;2023-02-21T08:21:37;17.47;;;12.13;;
3333;SDS011;1679;50.392;8.008;2023-02-21T08:24:08;27.70;;;15.93;;
3333;SDS011;1679;50.392;8.008;2023-02-21T08:26:34;27.77;;;14.53;;
3333;SDS011;1679;50.392;8.008;2023-02-21T08:29:00;25.63;;;16.00;;
3333;SDS011;1679;50.392;8.008;2023-02-21T08:31:26;21.60;;;14.30;;
3333;SDS011;1679;50.392;8.008;2023-02-21T08:33:51;24.67;;;15.53;;
3333;SDS011;1679;50.392;8.008;2023-02-21T08:36:17;22.47;;;15.73;;
3333;SDS011;1679;50.392;8.008;2023-02-21T08:38:42;24.87;;;15.73;;
3333;SDS011;1679;50.392;8.008;2023-02-21T08:41:08;20.33;;;14.10;;
3333;SDS011;1679;50.392;8.008;2023-02-21T08:43:34;23.13;;;15.20;;
3333;SDS011;1679;50.392;8.008;2023-02-21T08:46:01;19.70;;;15.13;;
3333;SDS011;1679;50.392;8.008;2023-02-21T08:48:28;17.90;;;13.43;;
3333;SDS011;1679;50.392;8.008;2023-02-21T08:50:54;22.60;;;15.43;;
3333;SDS011;1679;50.392;8.008;2023-02-21T08:53:19;19.50;;;14.47;;
3333;SDS011;1679;50.392;8.008;2023-02-21T08:55:45;21.90;;;14.77;;
3333;SDS011;1679;50.392;8.008;2023-02-21T08:58:11;19.93;;;13.37;;
3333;SDS011;1679;50.392;8.008;2023-02-21T09:00:37;19.50;;;13.97;;
3333;SDS011;1679;50.392;8.008;2023-02-21T09:03:03;16.97;;;13.50;;
3333;SDS011;1679;50.392;8.008;2023-02-21T09:05:29;19.47;;;14.10;;
3333;SDS011;1679;50.392;8.008;2023-02-21T09:07:56;18.30;;;13.37;;
3333;SDS011;1679;50.392;8.008;2023-02-21T09:10:25;18.80;;;13.50;;
3333;SDS011;1679;50.392;8.008;2023-02-21T09:12:53;18.43;;;13.97;;
3333;SDS011;1679;50.392;8.008;2023-02-21T09:15:19;18.90;;;13.37;;
3333;SDS011;1679;50.392;8.008;2023-02-21T09:17:46;21.33;;;14.60;;
3333;SDS011;1679;50.392;8.008;2023-02-21T09:20:14;22.90;;;14.87;;
3333;SDS011;1679;50.392;8.008;2023-02-21T09:22:42;21.37;;;14.13;;
3333;SDS011;1679;50.392;8.008;2023-02-21T09:25:12;21.40;;;14.47;;
3333;SDS011;1679;50.392;8.008;2023-02-21T09:27:39;18.67;;;13.10;;
3333;SDS011;1679;50.392;8.008;2023-02-21T09:30:06;18.07;;;12.20;;
3333;SDS011;1679;50.392;8.008;2023-02-21T09:32:33;18.87;;;12.93;;
3333;SDS011;1679;50.392;8.008;2023-02-21T09:35:00;20.53;;;14.77;;
3333;SDS011;1679;50.392;8.008;2023-02-21T09:37:26;20.60;;;14.60;;
3333;SDS011;1679;50.392;8.008;2023-02-21T09:39:52;19.23;;;13.57;;
3333;SDS011;1679;50.392;8.008;2023-02-21T09:42:17;20.87;;;15.30;;
3333;SDS011;1679;50.392;8.008;2023-02-21T09:44:46;20.93;;;14.60;;
3333;SDS011;1679;50.392;8.008;2023-02-21T09:50:11;16.93;;;12.67;;
3333;SDS011;1679;50.392;8.008;2023-02-21T09:52:40;18.70;;;14.00;;
3333;SDS011;1679;50.392;8.008;2023-02-21T09:55:10;17.03;;;12.30;;
3333;SDS011;1679;50.392;8.008;2023-02-21T09:57:58;17.53;;;13.20;;
3333;SDS011;1679;50.392;8.008;2023-02-21T10:00:34;17.40;;;13.07;;
3333;SDS011;1679;50.392;8.008;2023-02-21T10:10:57;17.03;;;13.17;;
3333;SDS011;1679;50.392;8.008;2023-02-21T10:16:04;21.20;;;14.13;;
3333;SDS011;1679;50.392;8.008;2023-02-21T10:18:50;16.37;;;13.30;;
3333;SDS011;1679;50.392;8.008;2023-02-21T10:21:46;17.13;;;12.87;;
3333;SDS011;1679;50.392;8.008;2023-02-21T10:24:21;20.67;;;13.53;;
3333;SDS011;1679;50.392;8.008;2023-02-21T10:27:11;16.70;;;12.77;;
3333;SDS011;1679;50.392;8.008;2023-02-21T10:32:17;17.87;;;13.07;;
3333;SDS011;1679;50.392;8.008;2023-02-21T10:34:44;17.23;;;12.97;;
3333;SDS011;1679;50.392;8.008;2023-02-21T10:37:17;21.30;;;13.47;;
3333;SDS011;1679;50.392;8.008;2023-02-21T10:40:05;19.20;;;13.80;;
3333;SDS011;1679;50.392;8.008;2023-02-21T10:43:06;21.80;;;14.00;;
3333;SDS011;1679;50.392;8.008;2023-02-21T10:45:53;18.93;;;13.70;;
3333;SDS011;1679;50.392;8.008;2023-02-21T10:48:20;21.17;;;14.23;;
3333;SDS011;1679;50.392;8.008;2023-02-21T10:53:25;16.60;;;13.10;;
3333;SDS011;1679;50.392;8.008;2023-02-21T10:56:09;16.23;;;12.43;;
3333;SDS011;1679;50.392;8.008;2023-02-21T10:58:46;19.67;;;13.67;;
3333;SDS011;1679;50.392;8.008;2023-02-21T11:03:58;18.57;;;12.70;;
3333;SDS011;1679;50.392;8.008;2023-02-21T11:08:51;16.93;;;13.57;;
3333;SDS011;1679;50.392;8.008;2023-02-21T11:14:24;16.53;;;12.90;;
3333;SDS011;1679;50.392;8.008;2023-02-21T11:17:03;19.20;;;13.47;;
3333;SDS011;1679;50.392;8.008;2023-02-21T11:19:41;17.07;;;11.93;;
3333;SDS011;1679;50.392;8.008;2023-02-21T11:22:07;19.00;;;12.20;;
3333;SDS011;1679;50.392;8.008;2023-02-21T11:24:42;14.90;;;11.90;;
3333;SDS011;1679;50.392;8.008;2023-02-21T11:27:14;16.60;;;12.77;;
3333;SDS011;1679;50.392;8.008;2023-02-21T11:29:41;16.20;;;12.50;;
3333;SDS011;1679;50.392;8.008;2023-02-21T11:32:11;15.63;;;12.17;;
3333;SDS011;1679;50.392;8.008;2023-02-21T11:34:47;16.47;;;11.90;;
3333;SDS011;1679;50.392;8.008;2023-02-21T11:37:46;16.43;;;11.80;;
3333;SDS011;1679;50.392;8.008;2023-02-21T11:40:24;19.03;;;13.53;;
3333;SDS011;1679;50.392;8.008;2023-02-21T11:45:37;14.50;;;11.63;;
3333;SDS011;1679;50.392;8.008;2023-02-21T11:48:10;18.03;;;12.20;;
3333;SDS011;1679;50.392;8.008;2023-02-21T11:50:41;12.20;;;10.23;;
3333;SDS011;1679;50.392;8.008;2023-02-21T11:53:24;14.47;;;11.07;;
3333;SDS011;1679;50.392;8.008;2023-02-21T11:56:01;13.80;;;10.17;;
3333;SDS011;1679;50.392;8.008;2023-02-21T11:58:43;12.90;;;9.97;;
3333;SDS011;1679;50.392;8.008;2023-02-21T12:01:28;13.20;;;9.00;;
3333;SDS011;1679;50.392;8.008;2023-02-21T12:09:44;11.43;;;8.50;;
3333;SDS011;1679;50.392;8.008;2023-02-21T12:15:19;10.93;;;8.70;;
3333;SDS011;1679;50.392;8.008;2023-02-21T12:23:29;12.33;;;8.33;;
3333;SDS011;1679;50.392;8.008;2023-02-21T12:31:56;9.40;;;8.03;;
3333;SDS011;1679;50.392;8.008;2023-02-21T12:43:59;9.77;;;8.30;;
3333;SDS011;1679;50.392;8.008;2023-02-21T12:46:51;11.43;;;8.20;;
3333;SDS011;1679;50.392;8.008;2023-02-21T12:49:25;10.27;;;7.83;;
3333;SDS011;1679;50.392;8.008;2023-02-21T12:51:56;11.20;;;9.17;;
3333;SDS011;1679;50.392;8.008;2023-02-21T12:57:43;9.60;;;8.07;;
3333;SDS011;1679;50.392;8.008;2023-02-21T13:00:24;14.80;;;9.80;;
3333;SDS011;1679;50.392;8.008;2023-02-21T13:05:55;9.60;;;8.60;;
3333;SDS011;1679;50.392;8.008;2023-02-21T13:08:29;10.10;;;8.33;;
3333;SDS011;1679;50.392;8.008;2023-02-21T13:11:05;12.60;;;9.40;;
3333;SDS011;1679;50.392;8.008;2023-02-21T13:13:38;9.90;;;7.93;;
3333;SDS011;1679;50.392;8.008;2023-02-21T13:16:04;11.60;;;8.47;;
3333;SDS011;1679;50.392;8.008;2023-02-21T13:18:45;10.47;;;7.07;;
3333;SDS011;1679;50.392;8.008;2023-02-21T13:24:26;6.00;;;5.40;;
3333;SDS011;1679;50.392;8.008;2023-02-21T13:29:39;10.30;;;7.47;;
3333;SDS011;1679;50.392;8.008;2023-02-21T13:32:16;7.60;;;6.13;;
3333;SDS011;1679;50.392;8.008;2023-02-21T13:34:58;10.73;;;7.43;;
3333;SDS011;1679;50.392;8.008;2023-02-21T13:37:25;10.83;;;7.83;;
3333;SDS011;1679;50.392;8.008;2023-02-21T13:39:57;10.30;;;7.73;;
3333;SDS011;1679;50.392;8.008;2023-02-21T13:42:32;9.83;;;7.90;;
3333;SDS011;1679;50.392;8.008;2023-02-21T13:45:15;9.37;;;7.47;;
3333;SDS011;1679;50.392;8.008;2023-02-21T13:54:11;9.73;;;6.90;;
3333;SDS011;1679;50.392;8.008;2023-02-21T13:56:38;9.93;;;7.93;;
3333;SDS011;1679;50.392;8.008;2023-02-21T14:01:48;6.97;;;6.27;;
3333;SDS011;1679;50.392;8.008;2023-02-21T14:07:17;8.87;;;6.53;;
3333;SDS011;1679;50.392;8.008;2023-02-21T14:10:11;7.63;;;5.53;;
3333;SDS011;1679;50.392;8.008;2023-02-21T14:13:07;6.70;;;5.87;;
3333;SDS011;1679;50.392;8.008;2023-02-21T14:18:44;6.83;;;6.13;;
3333;SDS011;1679;50.392;8.008;2023-02-21T14:21:24;7.27;;;6.57;;
3333;SDS011;1679;50.392;8.008;2023-02-21T14:23:57;7.70;;;5.93;;
3333;SDS011;1679;50.392;8.008;2023-02-21T14:29:09;7.93;;;6.57;;
3333;SDS011;1679;50.392;8.008;2023-02-21T14:37:14;11.07;;;6.60;;
3333;SDS011;1679;50.392;8.008;2023-02-21T14:39:47;7.97;;;6.33;;
3333;SDS011;1679;50.392;8.008;2023-02-21T14:42:18;10.13;;;6.10;;
3333;SDS011;1679;50.392;8.008;2023-02-21T14:50:30;9.17;;;6.30;;
3333;SDS011;1679;50.392;8.008;2023-02-21T14:53:59;6.77;;;5.67;;
3333;SDS011;1679;50.392;8.008;2023-02-21T14:56:11;7.63;;;6.27;;
3333;SDS011;1679;50.392;8.008;2023-02-21T14:59:07;7.00;;;5.63;;
3333;SDS011;1679;50.392;8.008;2023-02-21T15:04:41;8.00;;;6.20;;
3333;SDS011;1679;50.392;8.008;2023-02-21T15:10:28;10.27;;;5.90;;
3333;SDS011;1679;50.392;8.008;2023-02-21T15:13:04;7.60;;;6.80;;
3333;SDS011;1679;50.392;8.008;2023-02-21T15:15:40;5.93;;;5.27;;
3333;SDS011;1679;50.392;8.008;2023-02-21T15:18:08;9.30;;;6.30;;
3333;SDS011;1679;50.392;8.008;2023-02-21T15:20:59;7.27;;;5.80;;
3333;SDS011;1679;50.392;8.008;2023-02-21T15:23:27;11.80;;;7.33;;
3333;SDS011;1679;50.392;8.008;2023-02-21T15:25:55;10.73;;;7.57;;
3333;SDS011;1679;50.392;8.008;2023-02-21T15:28:29;7.70;;;6.20;;
3333;SDS011;1679;50.392;8.008;2023-02-21T15:30:56;6.90;;;5.40;;
3333;SDS011;1679;50.392;8.008;2023-02-21T15:33:33;7.73;;;6.30;;
3333;SDS011;1679;50.392;8.008;2023-02-21T15:36:14;6.47;;;5.87;;
3333;SDS011;1679;50.392;8.008;2023-02-21T15:38:46;7.50;;;5.00;;
3333;SDS011;1679;50.392;8.008;2023-02-21T15:41:26;8.27;;;5.13;;
3333;SDS011;1679;50.392;8.008;2023-02-21T15:44:00;5.70;;;4.67;;
3333;SDS011;1679;50.392;8.008;2023-02-21T15:46:31;6.70;;;5.23;;
3333;SDS011;1679;50.392;8.008;2023-02-21T15:49:03;6.93;;;5.00;;
3333;SDS011;1679;50.392;8.008;2023-02-21T15:51:30;7.67;;;4.57;;
3333;SDS011;1679;50.392;8.008;2023-02-21T15:54:06;6.10;;;5.50;;
3333;SDS011;1679;50.392;8.008;2023-02-21T15:56:33;6.97;;;5.37;;
3333;SDS011;1679;50.392;8.008;2023-02-21T16:01:34;6.40;;;5.10;;
3333;SDS011;1679;50.392;8.008;2023-02-21T16:04:14;6.53;;;5.00;;
3333;SDS011;1679;50.392;8.008;2023-02-21T16:06:46;6.20;;;4.63;;
3333;SDS011;1679;50.392;8.008;2023-02-21T16:09:19;6.10;;;5.00;;
3333;SDS011;1679;50.392;8.008;2023-02-21T16:12:04;7.13;;;4.83;;
3333;SDS011;1679;50.392;8.008;2023-02-21T16:17:37;4.97;;;4.53;;
3333;SDS011;1679;50.392;8.008;2023-02-21T16:22:41;7.17;;;5.40;;
3333;SDS011;1679;50.392;8.008;2023-02-21T16:30:26;6.87;;;6.17;;
3333;SDS011;1679;50.392;8.008;2023-02-21T16:32:57;8.73;;;6.10;;
3333;SDS011;1679;50.392;8.008;2023-02-21T16:35:24;6.97;;;6.27;;
3333;SDS011;1679;50.392;8.008;2023-02-21T16:37:52;6.80;;;6.20;;
3333;SDS011;1679;50.392;8.008;2023-02-21T16:40:23;8.50;;;6.73;;
3333;SDS011;1679;50.392;8.008;2023-02-21T16:42:50;7.20;;;6.50;;
3333;SDS011;1679;50.392;8.008;2023-02-21T16:45:17;7.80;;;7.00;;
3333;SDS011;1679;50.392;8.008;2023-02-21T16:47:43;7.03;;;6.33;;
3333;SDS011;1679;50.392;8.008;2023-02-21T16:50:18;6.80;;;6.10;;
3333;SDS011;1679;50.392;8.008;2023-02-21T16:52:47;7.23;;;5.80;;
3333;SDS011;1679;50.392;8.008;2023-02-21T16:55:14;8.13;;;5.30;;
3333;SDS011;1679;50.392;8.008;2023-02-21T16:57:41;6.67;;;5.63;;
3333;SDS011;1679;50.392;8.008;2023-02-21T17:00:07;10.90;;;6.67;;
3333;SDS011;1679;50.392;8.008;2023-02-21T17:02:33;12.03;;;9.73;;
3333;SDS011;1679;50.392;8.008;2023-02-21T17:04:59;12.10;;;10.87;;
3333;SDS011;1679;50.392;8.008;2023-02-21T17:07:24;24.17;;;18.50;;
3333;SDS011;1679;50.392;8.008;2023-02-21T17:09:50;13.53;;;10.17;;
3333;SDS011;1679;50.392;8.008;2023-02-21T17:12:16;9.70;;;7.00;;
3333;SDS011;1679;50.392;8.008;2023-02-21T17:14:43;9.33;;;8.00;;
3333;SDS011;1679;50.392;8.008;2023-02-21T17:17:08;17.43;;;15.67;;
3333;SDS011;1679;50.392;8.008;2023-02-21T17:19:34;17.33;;;15.43;;
3333;SDS011;1679;50.392;8.008;2023-02-21T17:21:59;15.37;;;13.30;;
3333;SDS011;1679;50.392;8.008;2023-02-21T17:24:25;16.10;;;13.90;;
3333;SDS011;1679;50.392;8.008;2023-02-21T17:26:51;10.10;;;7.90;;
3333;SDS011;1679;50.392;8.008;2023-02-21T17:29:19;11.80;;;10.60;;
3333;SDS011;1679;50.392;8.008;2023-02-21T17:31:50;10.80;;;8.67;;
3333;SDS011;1679;50.392;8.008;2023-02-21T17:34:19;8.33;;;7.37;;
3333;SDS011;1679;50.392;8.008;2023-02-21T17:36:49;11.33;;;10.07;;
3333;SDS011;1679;50.392;8.008;2023-02-21T17:39:17;11.60;;;10.40;;
3333;SDS011;1679;50.392;8.008;2023-02-21T17:41:44;14.03;;;12.60;;
3333;SDS011;1679;50.392;8.008;2023-02-21T17:44:11;15.50;;;13.73;;
3333;SDS011;1679;50.392;8.008;2023-02-21T17:46:36;10.40;;;9.40;;
3333;SDS011;1679;50.392;8.008;2023-02-21T17:49:02;13.03;;;11.60;;
3333;SDS011;1679;50.392;8.008;2023-02-21T17:51:28;12.03;;;10.83;;
3333;SDS011;1679;50.392;8.008;2023-02-21T17:53:54;15.87;;;10.43;;
3333;SDS011;1679;50.392;8.008;2023-02-21T17:56:22;10.50;;;9.50;;
3333;SDS011;1679;50.392;8.008;2023-02-21T17:58:51;10.10;;;8.03;;